createdAt,value
2022-12-09T00:02:59.646Z,100470.03
2022-12-09T00:06:10.448Z,100471.78
2022-12-09T00:09:15.196Z,100470.91
2022-12-09T00:12:16.895Z,100475.28
2022-12-09T00:15:18.404Z,100467.44
2022-12-09T00:18:19.988Z,100471.78
2022-12-09T00:21:23.064Z,100469.16
2022-12-09T00:24:24.747Z,100466.53
2022-12-09T00:27:26.848Z,100463.88
2022-12-09T00:30:28.607Z,100467.34
2022-12-09T00:33:31.926Z,100475.22
2022-12-09T00:36:34.529Z,100474.31
2022-12-09T00:39:36.164Z,100475.16
2022-12-09T00:42:37.724Z,100474.31
2022-12-09T00:45:39.268Z,100481.25
2022-12-09T00:48:42.130Z,100469.88
2022-12-09T00:51:43.706Z,100474.25
2022-12-09T00:54:45.253Z,100480.25
2022-12-09T00:57:46.822Z,100471.56
2022-12-09T01:00:48.576Z,100470.63
2022-12-09T01:03:50.397Z,100468.88
2022-12-09T01:06:52.888Z,100479.34
2022-12-09T01:09:54.443Z,100471.44
2022-12-09T01:12:56.130Z,100476.66
2022-12-09T01:15:58.523Z,100485.38
2022-12-09T01:19:03.218Z,100481.00
2022-12-09T01:22:04.729Z,100481.00
2022-12-09T01:25:06.588Z,100474.09
2022-12-09T01:28:08.109Z,100469.75
2022-12-09T01:31:15.544Z,100467.13
2022-12-09T01:34:17.440Z,100475.88
2022-12-09T01:37:19.103Z,100475.94
2022-12-09T01:40:20.811Z,100476.72
2022-12-09T01:43:23.258Z,100477.53
2022-12-09T01:46:25.287Z,100473.25
2022-12-09T01:49:48.222Z,100472.34
2022-12-09T01:52:50.588Z,100472.38
2022-12-09T01:55:55.643Z,100469.88
2022-12-09T01:59:02.418Z,100467.28
2022-12-09T02:02:07.934Z,100456.06
2022-12-09T02:05:10.689Z,100457.03
2022-12-09T02:08:15.247Z,100460.63
2022-12-09T02:11:35.812Z,100457.34
2022-12-09T02:14:45.452Z,100465.34
2022-12-09T02:18:00.256Z,100459.41
2022-12-09T02:21:08.819Z,100454.31
2022-12-09T02:24:17.461Z,100458.00
2022-12-09T02:27:42.661Z,100452.84
2022-12-09T02:31:14.937Z,100450.38
2022-12-09T02:34:27.030Z,100443.56
2022-12-09T02:37:59.096Z,100441.91
2022-12-09T02:41:08.276Z,100442.84
2022-12-09T02:44:15.413Z,100447.25
2022-12-09T02:47:25.247Z,100441.19
2022-12-09T02:50:31.647Z,100449.03
2022-12-09T02:53:35.215Z,100452.59
2022-12-09T02:56:39.031Z,100437.78
2022-12-09T02:59:40.616Z,100459.56
2022-12-09T03:02:49.923Z,100449.09
2022-12-09T03:06:08.288Z,100449.16
2022-12-09T03:09:15.291Z,100445.72
2022-12-09T03:12:20.177Z,100443.13
2022-12-09T03:15:26.592Z,100437.81
2022-12-09T03:18:30.243Z,100440.44
2022-12-09T03:21:34.726Z,100448.25
2022-12-09T03:24:46.098Z,100447.28
2022-12-09T03:27:55.964Z,100442.03
2022-12-09T03:31:03.266Z,100440.22
2022-12-09T03:34:07.631Z,100434.03
2022-12-09T03:37:12.171Z,100429.53
2022-12-09T03:40:17.889Z,100433.00
2022-12-09T03:43:25.083Z,100437.28
2022-12-09T03:46:29.839Z,100438.13
2022-12-09T03:49:33.211Z,100436.38
2022-12-09T03:52:46.575Z,100434.63
2022-12-09T03:55:59.363Z,100421.47
2022-12-09T03:59:04.268Z,100420.63
2022-12-09T04:02:07.579Z,100426.75
2022-12-09T04:05:09.797Z,100414.56
2022-12-09T04:08:12.158Z,100426.75
2022-12-09T04:11:14.341Z,100429.31
2022-12-09T04:14:16.583Z,100424.00
2022-12-09T04:17:18.226Z,100427.41
2022-12-09T04:20:20.088Z,100430.00
2022-12-09T04:23:22.177Z,100423.03
2022-12-09T04:26:24.205Z,100420.34
2022-12-09T04:29:25.982Z,100421.22
2022-12-09T04:32:30.465Z,100418.59
2022-12-09T04:35:32.541Z,100415.91
2022-12-09T04:38:34.535Z,100418.50
2022-12-09T04:41:36.948Z,100407.09
2022-12-09T04:44:38.641Z,100418.34
2022-12-09T04:47:40.540Z,100415.63
2022-12-09T04:50:42.430Z,100415.59
2022-12-09T04:53:44.531Z,100414.63
2022-12-09T04:56:46.260Z,100410.28
2022-12-09T04:59:47.908Z,100416.44
2022-12-09T05:02:49.733Z,100407.66
2022-12-09T05:05:51.452Z,100413.72
2022-12-09T05:08:53.595Z,100400.63
2022-12-09T05:11:57.499Z,100405.84
2022-12-09T05:14:59.575Z,100410.25
2022-12-09T05:18:02.815Z,100408.47
2022-12-09T05:21:13.854Z,100404.16
2022-12-09T05:24:15.574Z,100403.31
2022-12-09T05:27:17.431Z,100409.50
2022-12-09T05:30:19.152Z,100406.06
2022-12-09T05:33:21.009Z,100408.72
2022-12-09T05:36:25.368Z,100405.25
2022-12-09T05:39:27.337Z,100402.53
2022-12-09T05:42:28.907Z,100401.56
2022-12-09T05:45:30.647Z,100394.56
2022-12-09T05:48:32.573Z,100399.00
2022-12-09T05:51:34.573Z,100396.44
2022-12-09T05:54:36.327Z,100390.44
2022-12-09T05:57:38.645Z,100400.06
2022-12-09T06:00:40.295Z,100393.16
2022-12-09T06:03:42.213Z,100401.06
2022-12-09T06:06:45.060Z,100396.72
2022-12-09T06:09:47.300Z,100401.97
2022-12-09T06:12:49.020Z,100405.50
2022-12-09T06:15:50.636Z,100405.53
2022-12-09T06:18:52.624Z,100403.84
2022-12-09T06:21:54.397Z,100403.91
2022-12-09T06:24:57.336Z,100405.72
2022-12-09T06:27:59.060Z,100406.63
2022-12-09T06:31:00.876Z,100402.44
2022-12-09T06:34:02.922Z,100399.22
2022-12-09T06:37:04.733Z,100402.78
2022-12-09T06:40:07.296Z,100393.19
2022-12-09T06:43:09.696Z,100397.47
2022-12-09T06:46:17.052Z,100396.63
2022-12-09T06:49:19.161Z,100397.63
2022-12-09T06:52:20.920Z,100397.69
2022-12-09T06:55:22.802Z,100396.84
2022-12-09T06:58:24.970Z,100402.19
2022-12-09T07:01:27.064Z,100399.56
2022-12-09T07:04:29.392Z,100407.50
2022-12-09T07:07:31.703Z,100406.72
2022-12-09T07:10:33.756Z,100407.72
2022-12-09T07:13:36.194Z,100410.88
2022-12-09T07:16:38.438Z,100411.81
2022-12-09T07:19:40.161Z,100418.94
2022-12-09T07:22:41.981Z,100420.09
2022-12-09T07:25:44.005Z,100422.06
2022-12-09T07:28:47.348Z,100422.41
2022-12-09T07:31:49.517Z,100422.75
2022-12-09T07:34:51.762Z,100427.44
2022-12-09T07:37:55.393Z,100425.09
2022-12-09T07:41:04.911Z,100434.00
2022-12-09T07:44:06.859Z,100433.31
2022-12-09T07:47:08.530Z,100442.94
2022-12-09T07:50:10.588Z,100441.72
2022-12-09T07:53:12.305Z,100439.97
2022-12-09T07:56:16.362Z,100439.97
2022-12-09T07:59:18.440Z,100442.66
2022-12-09T08:02:20.224Z,100442.72
2022-12-09T08:05:22.085Z,100441.06
2022-12-09T08:08:24.372Z,100446.44
2022-12-09T08:11:28.491Z,100442.25
2022-12-09T08:14:30.317Z,100440.72
2022-12-09T08:17:33.551Z,100448.69
2022-12-09T08:20:35.410Z,100450.63
2022-12-09T08:23:38.262Z,100444.00
2022-12-09T08:26:41.145Z,100453.88
2022-12-09T08:29:43.484Z,100449.63
2022-12-09T08:32:45.623Z,100450.63
2022-12-09T08:35:47.592Z,100445.47
2022-12-09T08:38:49.759Z,100438.50
2022-12-09T08:41:51.794Z,100436.81
2022-12-09T08:44:58.576Z,100439.53
2022-12-09T08:48:04.572Z,100439.69
2022-12-09T08:51:07.941Z,100441.47
2022-12-09T08:54:09.927Z,100439.72
2022-12-09T08:57:11.835Z,100446.69
2022-12-09T09:00:14.948Z,100446.69
2022-12-09T09:03:17.301Z,100458.00
2022-12-09T09:06:20.065Z,100452.78
2022-12-09T09:09:22.429Z,100454.47
2022-12-09T09:12:24.723Z,100455.28
2022-12-09T09:15:26.412Z,100460.44
2022-12-09T09:18:28.482Z,100463.03
2022-12-09T09:21:30.546Z,100471.69
2022-12-09T09:24:32.590Z,100475.06
2022-12-09T09:27:34.781Z,100475.81
2022-12-09T09:30:37.760Z,100472.22
2022-12-09T09:33:39.912Z,100477.38
2022-12-09T09:36:42.152Z,100473.97
2022-12-09T09:39:43.960Z,100472.16
2022-12-09T09:42:49.873Z,100468.78
2022-12-09T09:45:55.273Z,100469.81
2022-12-09T09:48:59.019Z,100467.22
2022-12-09T09:52:05.983Z,100472.50
2022-12-09T09:55:16.245Z,100465.72
2022-12-09T09:58:22.425Z,100464.91
2022-12-09T10:01:31.450Z,100458.81
2022-12-09T10:04:49.835Z,100466.28
2022-12-09T10:08:13.539Z,100466.13
2022-12-09T10:11:26.964Z,100453.88
2022-12-09T10:15:06.387Z,100452.06
2022-12-09T10:18:23.592Z,100446.00
2022-12-09T10:21:30.075Z,100436.50
2022-12-09T10:24:39.896Z,100434.75
2022-12-09T10:28:14.888Z,100442.59
2022-12-09T10:31:16.725Z,100441.78
2022-12-09T10:34:18.576Z,100449.63
2022-12-09T10:37:26.788Z,100442.66
2022-12-09T10:40:37.644Z,100447.03
2022-12-09T10:43:42.470Z,100454.88
2022-12-09T10:46:44.959Z,100448.75
2022-12-09T10:49:50.898Z,100457.50
2022-12-09T10:52:52.779Z,100456.75
2022-12-09T10:55:56.821Z,100452.41
2022-12-09T10:59:13.691Z,100449.72
2022-12-09T11:02:15.876Z,100444.25
2022-12-09T11:05:22.919Z,100450.16
2022-12-09T11:08:25.208Z,100448.41
2022-12-09T11:11:47.241Z,100446.75
2022-12-09T11:14:52.696Z,100450.28
2022-12-09T11:18:02.788Z,100447.53
2022-12-09T11:21:07.820Z,100443.16
2022-12-09T11:24:24.917Z,100438.69
2022-12-09T11:27:33.946Z,100447.31
2022-12-09T11:30:57.591Z,100439.34
2022-12-09T11:34:13.609Z,100435.69
2022-12-09T11:37:15.292Z,100441.56
2022-12-09T11:40:19.068Z,100439.63
2022-12-09T11:43:20.570Z,100432.50
2022-12-09T11:46:26.922Z,100436.78
2022-12-09T11:49:32.027Z,100437.63
2022-12-09T11:52:33.611Z,100437.63
2022-12-09T11:55:47.308Z,100442.91
2022-12-09T11:59:00.035Z,100436.00
2022-12-09T12:02:14.667Z,100437.75
2022-12-09T12:05:28.126Z,100436.78
2022-12-09T12:08:50.643Z,100437.63
2022-12-09T12:11:57.870Z,100435.00
2022-12-09T12:15:10.572Z,100438.47
2022-12-09T12:18:20.087Z,100439.28
2022-12-09T12:21:41.912Z,100434.03
2022-12-09T12:24:54.108Z,100430.50
2022-12-09T12:28:32.952Z,100431.28
2022-12-09T12:32:01.801Z,100432.06
2022-12-09T12:35:28.864Z,100435.47
2022-12-09T12:38:36.901Z,100431.81
2022-12-09T12:41:50.732Z,100426.00
2022-12-09T12:45:26.777Z,100421.47
2022-12-09T12:48:44.867Z,100419.56
2022-12-09T12:52:26.318Z,100421.16
2022-12-09T12:55:43.723Z,100418.59
2022-12-09T12:59:50.246Z,100414.84
2022-12-09T13:03:07.502Z,100403.25
2022-12-09T13:06:15.792Z,100405.69
2022-12-09T13:09:25.612Z,100407.28
2022-12-09T13:12:50.871Z,100408.09
2022-12-09T13:15:55.546Z,100419.50
2022-12-09T13:19:06.391Z,100416.06
2022-12-09T13:22:16.743Z,100417.94
2022-12-09T13:25:30.094Z,100420.81
2022-12-09T13:28:37.420Z,100421.06
2022-12-09T13:31:54.372Z,100424.31
2022-12-09T13:35:05.203Z,100423.59
2022-12-09T13:38:23.850Z,100430.09
2022-12-09T13:41:31.615Z,100427.81
2022-12-09T13:44:36.860Z,100429.84
2022-12-09T13:47:38.463Z,100420.41
2022-12-09T13:50:43.106Z,100420.63
2022-12-09T13:53:49.623Z,100408.66
2022-12-09T13:57:09.220Z,100407.19
2022-12-09T14:00:17.973Z,100412.63
2022-12-09T14:03:45.556Z,100418.94
2022-12-09T14:06:52.303Z,100424.34
2022-12-09T14:09:55.534Z,100422.81
2022-12-09T14:12:57.359Z,100407.34
2022-12-09T14:16:17.565Z,100406.53
2022-12-09T14:19:25.051Z,100411.94
2022-12-09T14:22:26.531Z,100412.81
2022-12-09T14:25:29.200Z,100412.91
2022-12-09T14:28:41.669Z,100410.34
2022-12-09T14:32:44.681Z,100419.97
2022-12-09T14:35:50.312Z,100426.16
2022-12-09T14:39:26.334Z,100430.63
2022-12-09T14:42:27.919Z,100425.50
2022-12-09T14:46:00.169Z,100428.22
2022-12-09T14:49:03.531Z,100426.56
2022-12-09T14:52:17.732Z,100434.50
2022-12-09T14:55:23.060Z,100424.88
2022-12-09T14:58:26.498Z,100430.97
2022-12-09T15:01:28.089Z,100435.28
2022-12-09T15:04:42.454Z,100418.72
2022-12-09T15:07:46.360Z,100421.31
2022-12-09T15:10:47.952Z,100412.03
2022-12-09T15:13:52.117Z,100416.31
2022-12-09T15:16:55.656Z,100418.03
2022-12-09T15:20:01.266Z,100428.38
2022-12-09T15:23:15.036Z,100419.63
2022-12-09T15:26:32.235Z,100434.41
2022-12-09T15:29:34.429Z,100429.16
2022-12-09T15:32:38.869Z,100431.75
2022-12-09T15:35:42.360Z,100435.22
2022-12-09T15:38:51.165Z,100430.81
2022-12-09T15:42:13.426Z,100434.13
2022-12-09T15:45:29.167Z,100434.00
2022-12-09T15:48:37.325Z,100433.91
2022-12-09T15:51:42.328Z,100440.81
2022-12-09T15:54:45.511Z,100439.84
2022-12-09T15:57:51.338Z,100443.19
2022-12-09T16:00:54.343Z,100436.97
2022-12-09T16:03:58.755Z,100442.16
2022-12-09T16:07:08.105Z,100438.72
2022-12-09T16:10:15.293Z,100433.31
2022-12-09T16:13:18.418Z,100440.25
2022-12-09T16:16:38.551Z,100435.13
2022-12-09T16:19:40.691Z,100429.91
2022-12-09T16:22:42.419Z,100440.16
2022-12-09T16:25:48.065Z,100429.63
2022-12-09T16:28:55.793Z,100425.72
2022-12-09T16:32:15.993Z,100422.75
2022-12-09T16:35:17.521Z,100427.03
2022-12-09T16:38:19.490Z,100430.84
2022-12-09T16:41:47.012Z,100437.19
2022-12-09T16:44:48.930Z,100439.28
2022-12-09T16:47:54.867Z,100445.66
2022-12-09T16:51:02.727Z,100445.88
2022-12-09T16:54:16.548Z,100449.63
2022-12-09T16:57:21.549Z,100449.88
2022-12-09T17:00:23.906Z,100450.84
2022-12-09T17:03:28.121Z,100451.16
2022-12-09T17:06:30.207Z,100457.81
2022-12-09T17:09:31.767Z,100458.63
2022-12-09T17:12:33.367Z,100460.47
2022-12-09T17:15:34.956Z,100463.19
2022-12-09T17:18:36.736Z,100467.66
2022-12-09T17:21:38.279Z,100471.28
2022-12-09T17:24:39.927Z,100467.00
2022-12-09T17:27:41.531Z,100472.28
2022-12-09T17:30:43.043Z,100466.16
2022-12-09T17:33:44.925Z,100471.44
2022-12-09T17:36:46.574Z,100475.00
2022-12-09T17:39:54.590Z,100473.25
2022-12-09T17:42:58.674Z,100462.81
2022-12-09T17:46:04.786Z,100476.81
2022-12-09T17:49:06.397Z,100480.34
2022-12-09T17:52:07.970Z,100491.78
2022-12-09T17:55:10.323Z,100489.16
2022-12-09T17:58:11.833Z,100491.78
2022-12-09T18:01:19.766Z,100489.97
2022-12-09T18:04:21.349Z,100490.00
2022-12-09T18:07:23.023Z,100490.94
2022-12-09T18:10:24.584Z,100491.78
2022-12-09T18:13:26.143Z,100491.84
2022-12-09T18:16:27.887Z,100489.28
2022-12-09T18:19:30.296Z,100493.75
2022-12-09T18:22:32.294Z,100499.84
2022-12-09T18:25:33.927Z,100497.41
2022-12-09T18:28:36.176Z,100501.19
2022-12-09T18:31:38.227Z,100505.81
2022-12-09T18:34:39.856Z,100504.19
2022-12-09T18:37:41.521Z,100508.66
2022-12-09T18:41:01.116Z,100499.09
2022-12-09T18:44:06.368Z,100500.00
2022-12-09T18:47:07.973Z,100498.31
2022-12-09T18:50:10.543Z,100498.47
2022-12-09T18:53:12.228Z,100505.88
2022-12-09T18:56:15.019Z,100502.13
2022-12-09T18:59:16.946Z,100506.00
2022-12-09T19:02:18.961Z,100504.53
2022-12-09T19:05:20.594Z,100500.19
2022-12-09T19:08:22.180Z,100508.06
2022-12-09T19:11:29.037Z,100501.97
2022-12-09T19:14:31.714Z,100500.31
2022-12-09T19:17:33.320Z,100496.97
2022-12-09T19:20:34.911Z,100507.81
2022-12-09T19:23:38.463Z,100504.63
2022-12-09T19:26:41.595Z,100509.28
2022-12-09T19:29:43.186Z,100512.91
2022-12-09T19:32:53.521Z,100524.44
2022-12-09T19:35:55.328Z,100522.03
2022-12-09T19:39:01.336Z,100531.03
2022-12-09T19:42:04.903Z,100531.03
2022-12-09T19:45:12.076Z,100530.81
2022-12-09T19:48:15.626Z,100527.13
2022-12-09T19:51:18.366Z,100534.19
2022-12-09T19:54:26.739Z,100534.34
2022-12-09T19:57:29.895Z,100534.69
2022-12-09T20:00:33.705Z,100535.84
2022-12-09T20:03:40.518Z,100537.81
2022-12-09T20:06:43.396Z,100537.06
2022-12-09T20:09:45.008Z,100536.28
2022-12-09T20:12:46.594Z,100544.22
2022-12-09T20:15:48.139Z,100545.16
2022-12-09T20:18:51.937Z,100540.81
2022-12-09T20:21:53.784Z,100540.09
2022-12-09T20:24:55.429Z,100547.91
2022-12-09T20:27:56.968Z,100544.31
2022-12-09T20:31:22.762Z,100547.63
2022-12-09T20:34:25.048Z,100550.97
2022-12-09T20:37:27.079Z,100543.84
2022-12-09T20:40:28.642Z,100560.34
2022-12-09T20:43:31.196Z,100555.91
2022-12-09T20:46:33.780Z,100562.97
2022-12-09T20:49:35.427Z,100566.72
2022-12-09T20:52:37.072Z,100566.94
2022-12-09T20:55:38.660Z,100579.31
2022-12-09T20:58:41.436Z,100561.84
2022-12-09T21:01:43.721Z,100571.38
2022-12-09T21:04:46.079Z,100567.97
2022-12-09T21:07:47.658Z,100576.69
2022-12-09T21:10:49.237Z,100577.72
2022-12-09T21:13:56.918Z,100577.00
2022-12-09T21:16:58.468Z,100573.66
2022-12-09T21:19:59.996Z,100573.91
2022-12-09T21:23:32.308Z,100573.22
2022-12-09T21:26:24.632Z,100572.53
2022-12-09T21:29:31.571Z,100569.16
2022-12-09T21:32:34.229Z,100559.66
2022-12-09T21:35:36.554Z,100573.81
2022-12-09T21:38:39.332Z,100570.41
2022-12-09T21:41:41.835Z,100563.53
2022-12-09T21:44:43.376Z,100564.44
2022-12-09T21:47:44.883Z,100569.72
2022-12-09T21:50:54.100Z,100574.19
2022-12-09T21:53:55.626Z,100577.72
2022-12-09T21:56:57.192Z,100576.03
2022-12-09T21:59:58.776Z,100578.66
2022-12-09T22:03:00.292Z,100574.31
2022-12-09T22:06:01.988Z,100582.16
2022-12-09T22:09:05.192Z,100582.22
2022-12-09T22:12:06.907Z,100593.56
2022-12-09T22:15:10.597Z,100591.81
2022-12-09T22:18:12.243Z,100589.22
2022-12-09T22:21:24.680Z,100587.53
2022-12-09T22:24:27.363Z,100589.28
2022-12-09T22:27:29.431Z,100592.72
2022-12-09T22:30:31.052Z,100585.72
2022-12-09T22:33:32.599Z,100586.66
2022-12-09T22:36:36.871Z,100585.84
2022-12-09T22:39:38.483Z,100583.31
2022-12-09T22:42:40.075Z,100575.50
2022-12-09T22:45:41.606Z,100585.06
2022-12-09T22:48:43.816Z,100585.03
2022-12-09T22:51:46.298Z,100586.75
2022-12-09T22:54:47.938Z,100576.31
2022-12-09T22:57:49.847Z,100587.69
2022-12-09T23:00:51.827Z,100588.59
2022-12-09T23:03:57.941Z,100588.53
2022-12-09T23:06:59.715Z,100586.72
2022-12-09T23:10:02.250Z,100586.72
2022-12-09T23:13:04.087Z,100598.03
2022-12-09T23:16:06.570Z,100599.69
2022-12-09T23:19:09.864Z,100598.94
2022-12-09T23:22:11.386Z,100598.13
2022-12-09T23:25:13.621Z,100600.81
2022-12-09T23:28:15.188Z,100605.25
2022-12-09T23:31:18.974Z,100601.75
2022-12-09T23:34:20.743Z,100596.69
2022-12-09T23:37:22.444Z,100588.09
2022-12-09T23:40:23.978Z,100590.81
2022-12-09T23:43:25.603Z,100599.53
2022-12-09T23:46:29.561Z,100600.44
2022-12-09T23:49:31.127Z,100588.22
2022-12-09T23:52:37.641Z,100593.44
2022-12-09T23:55:43.054Z,100587.47
2022-12-09T23:58:45.451Z,100593.56
